createdAt,value
2022-08-28T00:02:10.454Z,77.27
2022-08-28T00:04:39.085Z,76.21
2022-08-28T00:07:08.602Z,77.00
2022-08-28T00:09:36.827Z,75.26
2022-08-28T00:12:07.457Z,75.76
2022-08-28T00:14:35.677Z,76.42
2022-08-28T00:17:03.861Z,75.98
2022-08-28T00:19:36.643Z,74.12
2022-08-28T00:22:08.309Z,73.59
2022-08-28T00:24:37.221Z,73.69
2022-08-28T00:27:23.274Z,72.33
2022-08-28T00:29:51.437Z,72.74
2022-08-28T00:32:23.555Z,72.04
2022-08-28T00:34:51.978Z,72.20
2022-08-28T00:37:24.667Z,71.97
2022-08-28T00:39:53.165Z,72.34
2022-08-28T00:42:22.229Z,72.51
2022-08-28T00:44:50.328Z,72.55
2022-08-28T00:47:18.527Z,72.59
2022-08-28T00:49:53.875Z,73.45
2022-08-28T00:52:24.519Z,72.41
2022-08-28T00:54:59.709Z,71.59
2022-08-28T00:57:33.448Z,70.64
2022-08-28T01:00:01.971Z,71.73
2022-08-28T01:02:31.862Z,71.57
2022-08-28T01:05:00.072Z,71.99
2022-08-28T01:07:29.763Z,72.46
2022-08-28T01:09:59.382Z,71.79
2022-08-28T01:12:32.466Z,71.99
2022-08-28T01:15:06.765Z,72.21
2022-08-28T01:17:36.573Z,72.99
2022-08-28T01:20:14.517Z,73.95
2022-08-28T01:22:52.294Z,75.20
2022-08-28T01:25:25.197Z,74.40
2022-08-28T01:27:53.315Z,74.56
2022-08-28T01:30:24.180Z,74.99
2022-08-28T01:32:56.704Z,73.92
2022-08-28T01:35:32.439Z,73.60
2022-08-28T01:38:01.364Z,73.45
2022-08-28T01:40:36.233Z,72.47
2022-08-28T01:43:10.119Z,73.02
2022-08-28T01:45:38.572Z,72.74
2022-08-28T01:48:08.553Z,71.99
2022-08-28T01:50:37.458Z,71.01
2022-08-28T01:53:07.365Z,71.74
2022-08-28T01:55:43.126Z,71.30
2022-08-28T01:58:13.962Z,72.56
2022-08-28T02:00:42.938Z,72.13
2022-08-28T02:03:12.681Z,71.53
2022-08-28T02:05:41.932Z,72.35
2022-08-28T02:08:10.584Z,72.18
2022-08-28T02:10:43.584Z,73.29
2022-08-28T02:13:13.399Z,72.31
2022-08-28T02:15:43.894Z,71.78
2022-08-28T02:18:13.054Z,71.33
2022-08-28T02:20:42.943Z,71.76
2022-08-28T02:23:11.986Z,71.85
2022-08-28T02:25:41.591Z,72.06
2022-08-28T02:28:10.052Z,72.34
2022-08-28T02:30:38.535Z,72.32
2022-08-28T02:33:06.799Z,70.57
2022-08-28T02:35:34.999Z,70.59
2022-08-28T02:38:04.591Z,70.04
2022-08-28T02:40:33.011Z,70.20
2022-08-28T02:43:02.572Z,68.92
2022-08-28T02:45:30.744Z,69.79
2022-08-28T02:47:58.847Z,69.58
2022-08-28T02:50:27.010Z,69.90
2022-08-28T02:52:55.170Z,69.29
2022-08-28T02:55:24.630Z,69.51
2022-08-28T02:57:54.526Z,70.13
2022-08-28T03:00:26.740Z,70.22
2022-08-28T03:02:55.004Z,70.63
2022-08-28T03:05:26.144Z,70.04
2022-08-28T03:07:54.755Z,69.78
2022-08-28T03:10:23.071Z,69.73
2022-08-28T03:12:51.753Z,70.65
2022-08-28T03:15:20.114Z,71.68
2022-08-28T03:17:49.682Z,69.79
2022-08-28T03:20:19.007Z,69.94
2022-08-28T03:23:04.833Z,71.32
2022-08-28T03:25:33.150Z,70.97
2022-08-28T03:28:01.268Z,70.09
2022-08-28T03:30:29.445Z,70.96
2022-08-28T03:32:58.974Z,70.92
2022-08-28T03:35:27.081Z,70.38
2022-08-28T03:37:55.149Z,70.85
2022-08-28T03:40:23.426Z,71.13
2022-08-28T03:42:53.591Z,70.92
2022-08-28T03:45:22.818Z,70.40
2022-08-28T03:47:51.840Z,70.09
2022-08-28T03:50:22.633Z,70.56
2022-08-28T03:52:53.192Z,69.96
2022-08-28T03:55:22.651Z,71.11
2022-08-28T03:57:50.875Z,72.16
2022-08-28T04:00:20.422Z,72.39
2022-08-28T04:02:48.594Z,72.90
2022-08-28T04:05:17.778Z,73.01
2022-08-28T04:07:47.299Z,72.30
2022-08-28T04:10:15.805Z,72.61
2022-08-28T04:12:44.660Z,72.71
2022-08-28T04:15:15.076Z,71.23
2022-08-28T04:17:43.298Z,72.17
2022-08-28T04:20:12.668Z,72.38
2022-08-28T04:22:40.906Z,72.13
2022-08-28T04:25:10.755Z,71.20
2022-08-28T04:27:38.875Z,71.06
2022-08-28T04:30:09.986Z,71.36
2022-08-28T04:32:39.965Z,69.43
2022-08-28T04:35:12.250Z,69.12
2022-08-28T04:37:41.546Z,69.59
2022-08-28T04:40:15.938Z,69.92
2022-08-28T04:42:45.047Z,70.20
2022-08-28T04:45:13.543Z,69.08
2022-08-28T04:47:41.627Z,68.99
2022-08-28T04:50:12.283Z,69.45
2022-08-28T04:52:40.362Z,68.84
2022-08-28T04:55:11.333Z,68.95
2022-08-28T04:57:39.457Z,69.26
2022-08-28T05:00:10.453Z,69.04
2022-08-28T05:02:38.609Z,68.88
2022-08-28T05:05:07.556Z,67.94
2022-08-28T05:07:35.797Z,68.07
2022-08-28T05:10:04.019Z,68.22
2022-08-28T05:12:36.237Z,68.82
2022-08-28T05:15:05.617Z,68.36
2022-08-28T05:17:34.162Z,67.90
2022-08-28T05:20:02.420Z,68.17
2022-08-28T05:22:32.562Z,67.60
2022-08-28T05:25:01.430Z,67.33
2022-08-28T05:27:29.924Z,67.47
2022-08-28T05:30:01.944Z,67.88
2022-08-28T05:32:30.447Z,67.63
2022-08-28T05:34:58.486Z,66.63
2022-08-28T05:37:27.703Z,66.07
2022-08-28T05:39:55.905Z,66.51
2022-08-28T05:42:24.031Z,66.66
2022-08-28T05:45:00.305Z,66.69
2022-08-28T05:47:28.419Z,66.06
2022-08-28T05:49:56.657Z,65.91
2022-08-28T05:52:24.871Z,65.75
2022-08-28T05:54:52.975Z,66.44
2022-08-28T05:57:21.103Z,67.05
2022-08-28T05:59:49.685Z,66.79
2022-08-28T06:02:19.197Z,66.75
2022-08-28T06:04:48.977Z,66.70
2022-08-28T06:07:17.238Z,66.75
2022-08-28T06:09:45.788Z,65.94
2022-08-28T06:12:13.872Z,65.74
2022-08-28T06:14:42.849Z,65.99
2022-08-28T06:17:12.955Z,65.86
2022-08-28T06:19:42.504Z,66.90
2022-08-28T06:22:14.694Z,66.87
2022-08-28T06:24:42.933Z,66.32
2022-08-28T06:27:11.044Z,65.49
2022-08-28T06:29:39.822Z,64.99
2022-08-28T06:32:09.147Z,65.12
2022-08-28T06:34:37.387Z,65.71
2022-08-28T06:37:07.891Z,64.06
2022-08-28T06:39:35.983Z,64.15
2022-08-28T06:42:05.425Z,64.53
2022-08-28T06:44:33.662Z,64.08
2022-08-28T06:47:02.019Z,64.80
2022-08-28T06:49:30.136Z,64.81
2022-08-28T06:51:58.218Z,64.28
2022-08-28T06:54:30.860Z,64.55
2022-08-28T06:56:59.007Z,63.85
2022-08-28T06:59:27.183Z,65.04
2022-08-28T07:01:55.675Z,64.89
2022-08-28T07:04:23.861Z,64.49
2022-08-28T07:06:54.496Z,64.93
2022-08-28T07:09:24.373Z,64.34
2022-08-28T07:11:54.533Z,64.85
2022-08-28T07:14:23.237Z,65.36
2022-08-28T07:16:53.883Z,65.69
2022-08-28T07:19:21.970Z,66.21
2022-08-28T07:21:50.058Z,65.62
2022-08-28T07:24:19.692Z,66.92
2022-08-28T07:26:49.262Z,66.10
2022-08-28T07:29:20.138Z,65.49
2022-08-28T07:31:50.783Z,64.54
2022-08-28T07:34:26.786Z,63.04
2022-08-28T07:36:56.216Z,62.93
2022-08-28T07:39:24.534Z,61.34
2022-08-28T07:41:52.586Z,60.66
2022-08-28T07:44:39.646Z,60.77
2022-08-28T07:47:11.509Z,59.33
2022-08-28T07:49:41.484Z,58.36
2022-08-28T07:52:10.543Z,58.45
2022-08-28T07:54:40.387Z,58.23
2022-08-28T07:57:10.651Z,59.08
2022-08-28T07:59:40.717Z,58.25
2022-08-28T08:02:11.500Z,57.72
2022-08-28T08:04:39.930Z,56.87
2022-08-28T08:07:08.812Z,56.92
2022-08-28T08:09:40.226Z,55.33
2022-08-28T08:12:10.226Z,53.59
2022-08-28T08:14:41.361Z,54.76
2022-08-28T08:17:12.053Z,54.56
2022-08-28T08:19:41.030Z,55.38
2022-08-28T08:22:09.280Z,54.38
2022-08-28T08:24:37.388Z,53.77
2022-08-28T08:27:06.711Z,53.99
2022-08-28T08:29:39.817Z,53.99
2022-08-28T08:32:11.838Z,53.46
2022-08-28T08:34:45.691Z,53.25
2022-08-28T08:37:14.539Z,52.74
2022-08-28T08:39:44.231Z,52.81
2022-08-28T08:42:24.467Z,53.73
2022-08-28T08:44:57.987Z,53.25
2022-08-28T08:47:39.447Z,53.49
2022-08-28T08:50:16.476Z,53.25
2022-08-28T08:53:13.318Z,53.16
2022-08-28T08:55:47.533Z,52.61
2022-08-28T08:58:27.713Z,53.58
2022-08-28T09:01:08.919Z,52.75
2022-08-28T09:03:53.967Z,52.16
2022-08-28T09:06:35.253Z,52.67
2022-08-28T09:09:15.663Z,51.87
2022-08-28T09:11:57.068Z,50.98
2022-08-28T09:14:37.982Z,50.12
2022-08-28T09:17:09.568Z,50.55
2022-08-28T09:19:38.345Z,51.48
2022-08-28T09:22:06.517Z,51.38
2022-08-28T09:24:37.833Z,51.24
2022-08-28T09:27:14.170Z,50.95
2022-08-28T09:29:43.516Z,51.53
2022-08-28T09:32:25.824Z,51.30
2022-08-28T09:35:10.518Z,51.07
2022-08-28T09:37:39.440Z,51.43
2022-08-28T09:40:23.659Z,52.39
2022-08-28T09:43:21.868Z,52.66
2022-08-28T09:45:59.249Z,52.41
2022-08-28T09:48:37.180Z,50.90
2022-08-28T09:51:08.926Z,50.97
2022-08-28T09:53:44.075Z,51.52
2022-08-28T09:56:22.502Z,50.73
2022-08-28T09:58:55.822Z,50.76
2022-08-28T10:01:44.763Z,50.74
2022-08-28T10:04:33.221Z,50.37
2022-08-28T10:07:07.215Z,49.92
2022-08-28T10:09:48.497Z,49.45
2022-08-28T10:12:41.310Z,49.71
2022-08-28T10:15:18.774Z,49.86
2022-08-28T10:18:10.732Z,49.36
2022-08-28T10:20:54.664Z,50.12
2022-08-28T10:23:39.326Z,49.86
2022-08-28T10:26:27.796Z,48.93
2022-08-28T10:29:20.914Z,49.31
2022-08-28T10:32:01.707Z,48.19
2022-08-28T10:34:47.658Z,48.67
2022-08-28T10:37:36.918Z,48.56
2022-08-28T10:40:11.653Z,47.99
2022-08-28T10:42:44.838Z,48.49
2022-08-28T10:45:17.245Z,48.43
2022-08-28T10:47:52.134Z,48.02
2022-08-28T10:50:27.716Z,47.80
2022-08-28T10:53:03.754Z,48.07
2022-08-28T10:55:40.232Z,47.60
2022-08-28T10:58:23.818Z,46.93
2022-08-28T11:00:56.956Z,47.83
2022-08-28T11:03:34.780Z,47.07
2022-08-28T11:06:11.511Z,47.69
2022-08-28T11:08:41.650Z,47.53
2022-08-28T11:11:15.870Z,47.36
2022-08-28T11:13:56.992Z,47.57
2022-08-28T11:16:40.361Z,46.76
2022-08-28T11:19:55.246Z,47.12
2022-08-28T11:22:29.043Z,46.86
2022-08-28T11:25:14.111Z,46.89
2022-08-28T11:28:17.548Z,47.36
2022-08-28T11:30:48.184Z,46.64
2022-08-28T11:33:39.879Z,46.75
2022-08-28T11:36:13.310Z,46.72
2022-08-28T11:39:23.014Z,46.16
2022-08-28T11:42:38.216Z,46.43
2022-08-28T11:45:07.884Z,45.90
2022-08-28T11:47:56.321Z,45.81
2022-08-28T11:50:32.230Z,46.29
2022-08-28T11:53:42.698Z,45.32
2022-08-28T11:56:45.537Z,46.33
2022-08-28T11:59:52.591Z,45.62
2022-08-28T12:02:48.780Z,46.04
2022-08-28T12:05:54.434Z,44.96
2022-08-28T12:09:15.499Z,45.76
2022-08-28T12:11:58.409Z,45.49
2022-08-28T12:15:11.240Z,44.96
2022-08-28T12:17:50.494Z,44.59
2022-08-28T12:20:35.856Z,43.37
2022-08-28T12:23:32.693Z,44.10
2022-08-28T12:26:05.279Z,44.45
2022-08-28T12:28:40.720Z,44.40
2022-08-28T12:32:16.090Z,44.31
2022-08-28T12:35:05.676Z,43.75
2022-08-28T12:37:52.190Z,44.28
2022-08-28T12:40:25.381Z,42.92
2022-08-28T12:42:58.258Z,42.60
2022-08-28T12:45:31.754Z,43.35
2022-08-28T12:48:06.870Z,43.00
2022-08-28T12:50:37.515Z,42.89
2022-08-28T12:53:11.839Z,43.52
2022-08-28T12:55:41.165Z,43.15
2022-08-28T12:58:15.097Z,42.11
2022-08-28T13:00:55.051Z,42.35
2022-08-28T13:03:26.611Z,41.99
2022-08-28T13:06:04.898Z,42.13
2022-08-28T13:08:36.134Z,41.77
2022-08-28T13:11:05.626Z,42.20
2022-08-28T13:13:41.454Z,41.11
2022-08-28T13:16:12.710Z,41.52
2022-08-28T13:18:51.390Z,41.05
2022-08-28T13:21:38.823Z,40.88
2022-08-28T13:24:43.521Z,40.09
2022-08-28T13:27:24.259Z,40.63
2022-08-28T13:30:05.176Z,40.57
2022-08-28T13:32:37.715Z,40.72
2022-08-28T13:35:36.386Z,40.80
2022-08-28T13:38:10.868Z,41.26
2022-08-28T13:40:59.194Z,40.71
2022-08-28T13:43:30.591Z,40.31
2022-08-28T13:45:59.047Z,40.86
2022-08-28T13:48:28.990Z,41.19
2022-08-28T13:51:04.881Z,40.91
2022-08-28T13:53:35.317Z,39.96
2022-08-28T13:56:05.146Z,39.42
2022-08-28T13:58:33.934Z,39.89
2022-08-28T14:01:02.447Z,39.96
2022-08-28T14:03:35.542Z,40.76
2022-08-28T14:06:09.226Z,40.24
2022-08-28T14:08:37.301Z,39.17
2022-08-28T14:11:07.111Z,39.28
2022-08-28T14:13:35.918Z,40.07
2022-08-28T14:16:08.172Z,38.65
2022-08-28T14:18:36.763Z,37.94
2022-08-28T14:21:07.821Z,38.34
2022-08-28T14:23:35.936Z,37.91
2022-08-28T14:26:07.003Z,38.96
2022-08-28T14:28:35.230Z,39.57
2022-08-28T14:31:11.009Z,39.96
2022-08-28T14:33:42.456Z,39.40
2022-08-28T14:36:18.159Z,39.82
2022-08-28T14:38:46.305Z,39.40
2022-08-28T14:41:15.162Z,39.45
2022-08-28T14:43:43.381Z,39.24
2022-08-28T14:46:16.791Z,39.79
2022-08-28T14:48:45.315Z,39.50
2022-08-28T14:51:13.648Z,38.82
2022-08-28T14:53:43.763Z,38.99
2022-08-28T14:56:12.605Z,39.26
2022-08-28T14:58:40.775Z,39.92
2022-08-28T15:01:08.939Z,39.41
2022-08-28T15:03:38.317Z,39.33
2022-08-28T15:06:10.026Z,39.44
2022-08-28T15:08:39.760Z,39.88
2022-08-28T15:11:13.224Z,40.28
2022-08-28T15:13:44.015Z,40.89
2022-08-28T15:16:16.214Z,40.58
2022-08-28T15:18:46.040Z,39.31
2022-08-28T15:21:19.243Z,39.22
2022-08-28T15:23:49.714Z,40.47
2022-08-28T15:26:20.531Z,40.31
2022-08-28T15:28:49.124Z,40.86
2022-08-28T15:31:18.986Z,40.59
2022-08-28T15:33:47.162Z,40.79
2022-08-28T15:36:15.271Z,40.54
2022-08-28T15:39:01.181Z,39.80
2022-08-28T15:41:31.749Z,40.00
2022-08-28T15:44:03.096Z,40.33
2022-08-28T15:46:34.674Z,40.72
2022-08-28T15:49:03.959Z,40.59
2022-08-28T15:51:36.827Z,40.25
2022-08-28T15:54:06.154Z,39.73
2022-08-28T15:56:35.611Z,39.66
2022-08-28T15:59:03.726Z,39.43
2022-08-28T16:01:31.908Z,39.88
2022-08-28T16:04:00.025Z,40.08
2022-08-28T16:06:29.070Z,40.33
2022-08-28T16:08:58.570Z,40.68
2022-08-28T16:11:27.771Z,40.94
2022-08-28T16:14:04.535Z,41.46
2022-08-28T16:16:33.641Z,41.08
2022-08-28T16:19:01.881Z,40.98
2022-08-28T16:21:30.264Z,40.91
2022-08-28T16:23:58.686Z,41.00
2022-08-28T16:26:26.840Z,41.61
2022-08-28T16:28:54.956Z,41.47
2022-08-28T16:31:24.666Z,40.94
2022-08-28T16:33:53.439Z,41.50
2022-08-28T16:36:23.849Z,41.55
2022-08-28T16:38:52.936Z,41.67
2022-08-28T16:41:32.893Z,42.39
2022-08-28T16:44:01.243Z,41.82
2022-08-28T16:46:30.962Z,42.13
2022-08-28T16:48:59.608Z,42.77
2022-08-28T16:51:29.577Z,42.76
2022-08-28T16:53:58.494Z,42.13
2022-08-28T16:56:26.733Z,43.31
2022-08-28T16:58:55.351Z,42.35
2022-08-28T17:01:24.562Z,42.35
2022-08-28T17:03:55.521Z,42.83
2022-08-28T17:06:26.954Z,42.82
2022-08-28T17:08:57.332Z,43.40
2022-08-28T17:11:26.615Z,43.64
2022-08-28T17:13:55.492Z,43.63
2022-08-28T17:16:25.877Z,44.00
2022-08-28T17:18:55.404Z,44.91
2022-08-28T17:21:41.342Z,45.06
2022-08-28T17:24:12.406Z,45.05
2022-08-28T17:26:41.630Z,45.22
2022-08-28T17:29:10.385Z,45.57
2022-08-28T17:31:39.391Z,45.33
2022-08-28T17:34:09.059Z,45.44
2022-08-28T17:36:39.388Z,44.97
2022-08-28T17:39:12.183Z,45.59
2022-08-28T17:41:42.725Z,45.68
2022-08-28T17:44:11.455Z,46.48
2022-08-28T17:46:39.736Z,46.60
2022-08-28T17:49:09.908Z,47.12
2022-08-28T17:51:43.285Z,47.44
2022-08-28T17:54:14.192Z,47.90
2022-08-28T17:56:42.649Z,48.48
2022-08-28T17:59:11.394Z,48.97
2022-08-28T18:01:41.066Z,50.43
2022-08-28T18:04:11.390Z,50.29
2022-08-28T18:06:40.151Z,49.62
2022-08-28T18:09:10.582Z,49.40
2022-08-28T18:11:38.875Z,49.52
2022-08-28T18:14:07.732Z,50.42
2022-08-28T18:16:38.246Z,50.40
2022-08-28T18:19:09.570Z,50.19
2022-08-28T18:21:39.947Z,51.14
2022-08-28T18:24:08.796Z,50.82
2022-08-28T18:26:36.948Z,51.50
2022-08-28T18:29:05.186Z,52.30
2022-08-28T18:31:33.508Z,52.30
2022-08-28T18:34:01.864Z,53.30
2022-08-28T18:36:30.384Z,53.51
2022-08-28T18:38:59.921Z,53.88
2022-08-28T18:41:43.004Z,54.90
2022-08-28T18:44:14.430Z,55.47
2022-08-28T18:46:43.196Z,55.14
2022-08-28T18:49:12.241Z,55.99
2022-08-28T18:51:42.275Z,57.24
2022-08-28T18:54:13.699Z,57.74
2022-08-28T18:56:45.261Z,58.02
2022-08-28T18:59:13.873Z,58.56
2022-08-28T19:01:42.337Z,58.76
2022-08-28T19:04:10.855Z,58.85
2022-08-28T19:06:39.325Z,59.27
2022-08-28T19:09:07.562Z,59.25
2022-08-28T19:11:37.258Z,59.40
2022-08-28T19:14:05.753Z,59.67
2022-08-28T19:16:35.362Z,59.90
2022-08-28T19:19:04.624Z,59.78
2022-08-28T19:21:33.297Z,59.31
2022-08-28T19:24:01.809Z,59.20
2022-08-28T19:26:30.224Z,59.41
2022-08-28T19:29:00.752Z,59.63
2022-08-28T19:31:29.730Z,60.46
2022-08-28T19:33:59.074Z,60.35
2022-08-28T19:36:29.514Z,60.35
2022-08-28T19:38:57.883Z,60.91
2022-08-28T19:41:26.488Z,61.27
2022-08-28T19:43:54.911Z,60.94
2022-08-28T19:46:24.600Z,61.29
2022-08-28T19:48:54.752Z,61.95
2022-08-28T19:51:25.327Z,62.05
2022-08-28T19:53:58.385Z,61.57
2022-08-28T19:56:29.692Z,62.26
2022-08-28T19:58:59.586Z,62.44
2022-08-28T20:01:31.349Z,63.00
2022-08-28T20:04:01.392Z,61.97
2022-08-28T20:06:33.011Z,61.83
2022-08-28T20:09:03.033Z,60.88
2022-08-28T20:11:31.505Z,60.73
2022-08-28T20:14:04.798Z,60.69
2022-08-28T20:16:39.066Z,61.34
2022-08-28T20:19:10.883Z,61.37
2022-08-28T20:21:41.595Z,59.83
2022-08-28T20:24:14.827Z,60.46
2022-08-28T20:26:43.167Z,60.70
2022-08-28T20:29:12.222Z,61.79
2022-08-28T20:31:45.503Z,60.11
2022-08-28T20:34:16.956Z,60.28
2022-08-28T20:36:45.699Z,61.24
2022-08-28T20:39:14.782Z,60.61
2022-08-28T20:41:46.009Z,60.37
2022-08-28T20:44:20.113Z,60.77
2022-08-28T20:46:51.110Z,60.84
2022-08-28T20:49:22.429Z,60.31
2022-08-28T20:51:55.999Z,58.32
2022-08-28T20:54:28.781Z,58.22
2022-08-28T20:56:59.269Z,59.20
2022-08-28T20:59:33.427Z,60.54
2022-08-28T21:02:11.753Z,57.59
2022-08-28T21:04:43.294Z,59.97
2022-08-28T21:07:12.682Z,57.69
2022-08-28T21:10:05.456Z,58.27
2022-08-28T21:12:29.723Z,59.34
2022-08-28T21:14:58.991Z,59.88
2022-08-28T21:17:30.781Z,60.12
2022-08-28T21:20:03.175Z,58.54
2022-08-28T21:22:35.386Z,57.68
2022-08-28T21:25:06.102Z,58.48
2022-08-28T21:27:34.923Z,57.91
2022-08-28T21:30:05.046Z,57.50
2022-08-28T21:32:36.193Z,57.55
2022-08-28T21:35:08.014Z,56.00
2022-08-28T21:37:36.618Z,54.81
2022-08-28T21:40:07.836Z,54.17
2022-08-28T21:42:36.658Z,54.17
2022-08-28T21:45:11.688Z,53.68
2022-08-28T21:47:43.266Z,55.93
2022-08-28T21:50:12.517Z,54.03
2022-08-28T21:52:41.468Z,54.32
2022-08-28T21:55:14.081Z,54.47
2022-08-28T21:57:43.556Z,55.08
2022-08-28T22:00:20.545Z,54.59
2022-08-28T22:02:51.581Z,54.64
2022-08-28T22:05:20.425Z,53.93
2022-08-28T22:07:48.661Z,53.76
2022-08-28T22:10:16.952Z,53.90
2022-08-28T22:12:45.287Z,53.96
2022-08-28T22:15:13.602Z,53.30
2022-08-28T22:17:41.914Z,53.84
2022-08-28T22:20:12.426Z,53.59
2022-08-28T22:22:58.320Z,55.09
2022-08-28T22:25:26.710Z,54.64
2022-08-28T22:27:55.045Z,55.28
2022-08-28T22:30:23.804Z,55.08
2022-08-28T22:32:52.671Z,54.84
2022-08-28T22:35:22.324Z,55.25
2022-08-28T22:37:50.586Z,55.59
2022-08-28T22:40:19.203Z,55.23
2022-08-28T22:42:47.670Z,55.35
2022-08-28T22:45:15.914Z,54.96
2022-08-28T22:47:44.854Z,54.97
2022-08-28T22:50:13.468Z,54.79
2022-08-28T22:52:43.571Z,55.54
2022-08-28T22:55:14.133Z,55.85
2022-08-28T22:57:43.279Z,55.73
2022-08-28T23:00:16.257Z,55.78
2022-08-28T23:02:45.336Z,55.77
2022-08-28T23:05:14.365Z,55.50
2022-08-28T23:07:44.854Z,55.79
2022-08-28T23:10:14.587Z,55.97
2022-08-28T23:12:43.376Z,55.87
2022-08-28T23:15:15.426Z,56.14
2022-08-28T23:17:45.169Z,55.89
2022-08-28T23:20:18.091Z,55.87
2022-08-28T23:22:48.462Z,55.99
2022-08-28T23:25:20.054Z,56.69
2022-08-28T23:27:49.596Z,57.20
2022-08-28T23:30:19.936Z,56.43
2022-08-28T23:32:48.234Z,57.51
2022-08-28T23:35:18.439Z,57.29
2022-08-28T23:37:51.825Z,58.00
2022-08-28T23:40:24.938Z,58.07
2022-08-28T23:42:54.648Z,59.29
2022-08-28T23:45:23.840Z,58.61
2022-08-28T23:47:52.766Z,57.70
2022-08-28T23:50:24.883Z,57.36
2022-08-28T23:52:54.477Z,57.88
2022-08-28T23:55:23.559Z,58.14
2022-08-28T23:57:55.292Z,57.77
